This is the latest recevied weather packets stored in our database for station/object WB5LFS-1. If no packets are shown the sender has not sent any weather packets the latest 10 day(s).
| Time | Temp. | Humidity | Pressure | Rain* | Wind** | Luminosity | Snow |
|---|---|---|---|---|---|---|---|
| 1777863411 | 8.89° C | 82% | 1016.6 hPa | 0 mm | - | - | - |
| 1777862511 | 9.44° C | 83% | 1016.7 hPa | 0 mm | - | - | - |
| 1777861611 | 9.44° C | 83% | 1016.7 hPa | 0 mm | - | - | - |
| 1777860711 | 9.44° C | 82% | 1016.7 hPa | 0 mm | - | - | - |
| 1777859811 | 10° C | 80% | 1016.7 hPa | 0 mm | - | - | - |
| 1777858911 | 9.44° C | 78% | 1016.7 hPa | 0 mm | - | - | - |
| 1777858011 | 9.44° C | 75% | 1016.7 hPa | 0 mm | - | - | - |
| 1777857111 | 10° C | 69% | 1016.6 hPa | 0 mm | - | - | - |
| 1777856211 | 10.56° C | 60% | 1016.3 hPa | 0 mm | - | - | - |
| 1777855311 | 11.11° C | 57% | 1016.3 hPa | 0 mm | - | - | - |
| 1777854411 | 11.67° C | 50% | 1016.1 hPa | 0 mm | - | - | - |
| 1777853511 | 12.22° C | 48% | 1015.9 hPa | 0 mm | - | - | - |
| 1777852611 | 13.33° C | 47% | 1015.8 hPa | 0 mm | - | - | - |
| 1777851711 | 13.89° C | 44% | 1015.6 hPa | 0 mm | - | - | - |
| 1777850811 | 15° C | 41% | 1015.7 hPa | 0 mm | - | - | - |
| 1777849911 | 15.56° C | 36% | 1015.6 hPa | 0 mm | - | - | - |
| 1777849011 | 16.11° C | 34% | 1015.5 hPa | 0 mm | - | - | - |
| 1777848111 | 16.67° C | 34% | 1015.6 hPa | 0 mm | - | - | - |
| 1777847211 | 17.22° C | 33% | 1015.7 hPa | 0 mm | - | - | - |
| 1777846311 | 17.22° C | 31% | 1015.6 hPa | 0 mm | - | - | - |
| 1777845411 | 17.78° C | 32% | 1015.7 hPa | 0 mm | - | - | - |
| 1777844511 | 17.22° C | 34% | 1015.6 hPa | 0 mm | - | - | - |
| 1777843611 | 17.78° C | 31% | 1015.6 hPa | 0 mm | - | - | - |
| 1777842711 | 17.78° C | 33% | 1015.6 hPa | 0 mm | - | - | - |
| 1777841811 | 17.22° C | 33% | 1015.5 hPa | 0 mm | - | - | - |
* Rain latest hour (hover to see other rain measurements)
** Current wind speed in m/s (hover to see current wind gust speed)